Ursa Minor — ICGH — position and weather

sailwx.info

Track history (hours):
 
Tides and Currents Weather Stations Pressure Air Temp Water Temp Dewpoint Dewpoint Depression Visibility Wind Speed Wind Dir Waves Ship Positions

Ursa Minor

Last reported at 2016-Oct-01 04:32 UTC. Time now 2016-Oct-01 10:23 UTC.
Position N 38°48' E 015°18'.

Length 205 m; draft 8.3 m.

Type: Ship. MMSI: 247082300.

Date/timePositionNaut miles runAvg speedWind from/ knotsBaromVisibWave heightAir tempDewpointWater temp
2016-Oct-01 04:32N 38°48' E 015°18'36811.2
2016-Sep-29 19:33N 43°29' E 010°02'3511.8
2016-Sep-29 16:33N 43°55' E 009°29'1211.9
2016-Sep-29 15:33N 44°04' E 009°18'1211.5
2016-Sep-29 14:33N 44°13' E 009°07'1111.3
2016-Sep-29 13:33N 44°21' E 008°57'4 0.7
2016-Sep-29 08:33N 44°24' E 008°53'4 3.8
2016-Sep-29 07:33N 44°22' E 008°58'3 0.4
2016-Sep-29 00:33N 44°21' E 009°01'3311.0
2016-Sep-28 21:33N 43°54' E 009°29'2411.8
2016-Sep-28 19:33N 43°37' E 009°51'3411.3
2016-Sep-28 16:33N 43°09' E 010°17'1111.5
2016-Sep-28 15:33N 42°59' E 010°25'34211.8
2016-Sep-27 10:27N 38°42' E 015°23'54 1.1
2016-Sep-25 11:28N 37°53' E 015°52'910.2
2016-Sep-25 10:33N 37°55' E 015°41'1110.9
2016-Sep-25 09:33N 38°05' E 015°35'19 9.7
2016-Sep-25 07:33N 38°25' E 015°36'41511.5
2016-Sep-23 19:33N 43°44' E 009°43'2412.3
2016-Sep-23 17:34N 44°02' E 009°20'1212.3
2016-Sep-23 16:34N 44°11' E 009°09'1211.9
2016-Sep-23 15:34N 44°20' E 008°58'6 2.7
2016-Sep-23 13:24N 44°24' E 008°52'0 0.0
2016-Sep-23 09:32N 44°24' E 008°52'0 0.1
2016-Sep-23 06:33N 44°24' E 008°52'13 6.7
2016-Sep-23 04:33N 44°15' E 009°06'1211.8
2016-Sep-23 03:33N 44°06' E 009°17'1111.4
2016-Sep-23 02:33N 43°58' E 009°27'1211.6
2016-Sep-23 01:33N 43°49' E 009°38'1211.9
2016-Sep-23 00:33N 43°40' E 009°49'1212.5
2016-Sep-22 23:33N 43°31' E 010°00'3811.8
2016-Sep-22 20:19N 42°57' E 010°26'39011.2
2016-Sep-21 09:31N 37°53' E 015°47'  
Track history (hours):
 
Tides and Currents Weather Stations Pressure Air Temp Water Temp Dewpoint Dewpoint Depression Visibility Wind Speed Wind Dir Waves Ship Positions

Ursa Minor

Last reported at 2016-Oct-01 04:32 UTC. Time now 2016-Oct-01 10:23 UTC.
Position N 38°48' E 015°18'.

Length 205 m; draft 8.3 m.

Type: Ship. MMSI: 247082300.

Date/timePositionNaut miles runAvg speedWind from/ knotsBaromVisibWave heightAir tempDewpointWater temp
2016-Oct-01 04:32N 38°48' E 015°18'36811.2
2016-Sep-29 19:33N 43°29' E 010°02'3511.8
2016-Sep-29 16:33N 43°55' E 009°29'1211.9
2016-Sep-29 15:33N 44°04' E 009°18'1211.5
2016-Sep-29 14:33N 44°13' E 009°07'1111.3
2016-Sep-29 13:33N 44°21' E 008°57'4 0.7
2016-Sep-29 08:33N 44°24' E 008°53'4 3.8
2016-Sep-29 07:33N 44°22' E 008°58'3 0.4
2016-Sep-29 00:33N 44°21' E 009°01'3311.0
2016-Sep-28 21:33N 43°54' E 009°29'2411.8
2016-Sep-28 19:33N 43°37' E 009°51'3411.3
2016-Sep-28 16:33N 43°09' E 010°17'1111.5
2016-Sep-28 15:33N 42°59' E 010°25'34211.8
2016-Sep-27 10:27N 38°42' E 015°23'54 1.1
2016-Sep-25 11:28N 37°53' E 015°52'910.2
2016-Sep-25 10:33N 37°55' E 015°41'1110.9
2016-Sep-25 09:33N 38°05' E 015°35'19 9.7
2016-Sep-25 07:33N 38°25' E 015°36'41511.5
2016-Sep-23 19:33N 43°44' E 009°43'2412.3
2016-Sep-23 17:34N 44°02' E 009°20'1212.3
2016-Sep-23 16:34N 44°11' E 009°09'1211.9
2016-Sep-23 15:34N 44°20' E 008°58'6 2.7
2016-Sep-23 13:24N 44°24' E 008°52'0 0.0
2016-Sep-23 09:32N 44°24' E 008°52'0 0.1
2016-Sep-23 06:33N 44°24' E 008°52'13 6.7
2016-Sep-23 04:33N 44°15' E 009°06'1211.8
2016-Sep-23 03:33N 44°06' E 009°17'1111.4
2016-Sep-23 02:33N 43°58' E 009°27'1211.6
2016-Sep-23 01:33N 43°49' E 009°38'1211.9
2016-Sep-23 00:33N 43°40' E 009°49'1212.5
2016-Sep-22 23:33N 43°31' E 010°00'3811.8
2016-Sep-22 20:19N 42°57' E 010°26'39011.2
2016-Sep-21 09:31N 37°53' E 015°47'  

Dump ship's entire track history